Time;durP1;ratioP1;P1;durP2;ratioP2;P2;SDS_P1;SDS_P2;PMS_P1;PMS_P2;Temp;Humidity;BMP_temperature;BMP_pressure;BME280_temperature;BME280_humidity;BME280_pressure;Samples;Min_cycle;Max_cycle;Signal;HPM_P1;HPM_P2
2022/05/29 00:00:53;;;;;;;2.50;2.30;;;15.80;37.20;;;;;;20544;6838;307204;-75
2022/05/29 00:03:19;;;;;;;2.10;1.90;;;15.80;37.20;;;;;;20764;6838;117302;-75
2022/05/29 00:05:44;;;;;;;3.17;2.17;;;15.70;37.10;;;;;;20768;6838;120315;-75
2022/05/29 00:08:10;;;;;;;3.08;2.20;;;15.40;37.60;;;;;;20528;6838;336749;-75
2022/05/29 00:10:38;;;;;;;2.25;1.95;;;15.40;37.80;;;;;;20739;6838;117611;-74
2022/05/29 00:13:03;;;;;;;3.13;1.90;;;15.40;37.70;;;;;;20760;6838;117330;-76
2022/05/29 00:15:30;;;;;;;3.00;2.00;;;15.00;38.40;;;;;;20751;6838;117795;-75
2022/05/29 00:17:57;;;;;;;2.70;1.90;;;15.00;38.40;;;;;;20761;6838;117572;-75
2022/05/29 00:20:22;;;;;;;2.37;1.87;;;14.80;38.90;;;;;;20739;6838;118248;-75
2022/05/29 00:22:48;;;;;;;2.90;1.90;;;14.60;39.30;;;;;;20752;6838;120426;-75
2022/05/29 00:25:13;;;;;;;2.10;1.83;;;14.40;39.90;;;;;;20549;6838;278615;-75
2022/05/29 00:27:39;;;;;;;1.97;1.83;;;14.60;40.90;;;;;;20760;6838;119027;-75
2022/05/29 00:30:04;;;;;;;1.87;1.77;;;14.60;40.70;;;;;;20746;6838;117176;-75
2022/05/29 00:32:30;;;;;;;2.57;2.00;;;14.40;40.80;;;;;;20522;6836;281072;-75
2022/05/29 00:34:56;;;;;;;2.40;1.97;;;14.60;41.10;;;;;;20553;6837;307775;-75
2022/05/29 00:37:23;;;;;;;2.10;1.90;;;15.10;40.70;;;;;;20555;6837;278641;-75
2022/05/29 00:39:49;;;;;;;2.67;1.95;;;15.10;40.70;;;;;;20555;6838;340351;-74
2022/05/29 00:42:15;;;;;;;2.65;2.30;;;15.30;40.80;;;;;;20529;6838;288882;-74
2022/05/29 00:44:41;;;;;;;3.13;1.90;;;15.40;40.30;;;;;;20760;6838;118244;-74
2022/05/29 00:47:12;;;;;;;2.50;2.30;;;15.20;40.40;;;;;;20548;6838;308545;-74
2022/05/29 00:49:37;;;;;;;3.90;2.10;;;15.10;40.90;;;;;;20748;6838;117070;-75
2022/05/29 00:52:16;;;;;;;2.28;2.08;;;14.90;40.70;;;;;;20556;6838;278535;-75
2022/05/29 00:54:53;;;;;;;2.65;2.45;;;14.90;41.00;;;;;;20559;6838;294662;-74
2022/05/29 00:57:14;;;;;;;3.93;2.30;;;15.20;40.70;;;;;;20745;6838;118093;-75
2022/05/29 00:59:39;;;;;;;2.60;2.40;;;15.00;40.50;;;;;;20536;6838;281287;-75
2022/05/29 01:02:05;;;;;;;3.80;2.17;;;15.10;40.10;;;;;;20767;6838;117474;-75
2022/05/29 01:04:31;;;;;;;2.80;2.60;;;15.00;40.10;;;;;;20537;6838;278054;-76
2022/05/29 01:06:57;;;;;;;3.40;2.40;;;15.00;40.10;;;;;;20764;6838;122231;-75
2022/05/29 01:09:23;;;;;;;2.47;2.37;;;14.60;40.60;;;;;;20766;6838;121514;-74
2022/05/29 01:11:59;;;;;;;2.72;2.40;;;14.60;40.60;;;;;;20547;6838;279036;-74
2022/05/29 01:14:28;;;;;;;2.63;2.43;;;15.00;40.10;;;;;;20531;6838;309946;-74
2022/05/29 01:17:00;;;;;;;2.87;2.67;;;15.00;40.10;;;;;;20731;6838;117722;-75
2022/05/29 01:19:46;;;;;;;3.07;2.30;;;14.90;40.30;;;;;;20762;6838;119233;-74
2022/05/29 01:22:29;;;;;;;2.80;2.60;;;14.60;40.70;;;;;;20520;6838;307721;-75
2022/05/29 01:25:18;;;;;;;3.03;2.00;;;14.80;40.80;;;;;;20738;6838;122433;-74
2022/05/29 01:27:43;;;;;;;2.47;2.28;;;14.70;40.80;;;;;;20555;6838;308123;-74
2022/05/29 01:30:16;;;;;;;2.13;2.03;;;14.80;40.60;;;;;;20708;6838;117452;-74
2022/05/29 01:32:41;;;;;;;2.97;2.50;;;14.80;40.60;;;;;;20542;6838;310748;-75
2022/05/29 01:35:11;;;;;;;2.20;2.00;;;14.90;40.80;;;;;;20533;6838;282261;-75
2022/05/29 01:37:42;;;;;;;2.10;1.87;;;15.30;40.60;;;;;;20755;6838;119974;-75
2022/05/29 01:40:28;;;;;;;2.57;2.03;;;15.20;40.50;;;;;;20736;6838;117389;-75
2022/05/29 01:42:53;;;;;;;6.50;2.00;;;14.90;40.80;;;;;;20770;6836;117772;-75
2022/05/29 01:45:56;;;;;;;2.10;1.90;;;14.40;41.50;;;;;;20751;6837;117105;-77
2022/05/29 01:48:54;;;;;;;2.72;2.30;;;14.40;41.50;;;;;;20535;6837;337169;-75
2022/05/29 01:51:22;;;;;;;2.30;2.03;;;14.60;42.20;;;;;;20720;6838;117331;-74
2022/05/29 01:53:52;;;;;;;2.67;2.40;;;14.60;42.40;;;;;;20544;6838;278124;-75
2022/05/29 01:56:28;;;;;;;2.50;2.30;;;14.60;42.00;;;;;;20513;6838;309742;-75
2022/05/29 01:59:03;;;;;;;2.70;2.20;;;14.90;41.50;;;;;;20751;6838;120311;-75
2022/05/29 02:01:31;;;;;;;2.50;2.30;;;14.70;41.40;;;;;;20517;6838;295009;-76
2022/05/29 02:03:57;;;;;;;2.92;2.62;;;14.70;41.80;;;;;;20539;6838;307934;-75
2022/05/29 02:06:23;;;;;;;2.20;2.10;;;14.80;40.70;;;;;;20729;6838;121425;-75
2022/05/29 02:09:01;;;;;;;2.60;2.40;;;14.60;40.90;;;;;;20499;6838;278053;-75
2022/05/29 02:11:27;;;;;;;2.43;2.33;;;14.70;41.60;;;;;;20740;6838;117325;-75
2022/05/29 02:13:59;;;;;;;3.47;2.50;;;14.50;41.60;;;;;;20748;6838;117487;-75
2022/05/29 02:16:48;;;;;;;2.80;2.60;;;14.20;41.90;;;;;;20351;6826;337428;-75
2022/05/29 02:19:34;;;;;;;2.50;2.40;;;14.30;41.50;;;;;;20801;6826;117302;-75
2022/05/29 02:21:59;;;;;;;3.00;2.80;;;14.20;41.40;;;;;;20580;6826;280446;-75
2022/05/29 02:24:25;;;;;;;2.67;2.47;;;14.30;41.20;;;;;;20450;6841;307673;-75
2022/05/29 02:26:50;;;;;;;2.87;2.53;;;14.50;41.30;;;;;;20519;6841;279434;-75
2022/05/29 02:29:16;;;;;;;3.00;2.80;;;14.70;40.60;;;;;;20534;6841;314230;-74
2022/05/29 02:32:19;;;;;;;3.08;2.80;;;14.90;40.40;;;;;;20542;6841;308654;-75
2022/05/29 02:34:45;;;;;;;2.87;2.62;;;15.00;40.30;;;;;;19513;7173;323969;-75
2022/05/29 02:37:16;;;;;;;3.17;2.70;;;14.90;40.30;;;;;;20210;6826;286223;-74
2022/05/29 02:39:55;;;;;;;2.80;2.60;;;15.00;40.40;;;;;;20760;6826;117657;-75
2022/05/29 02:42:30;;;;;;;2.27;2.03;;;14.60;40.60;;;;;;20754;6826;118432;-74
2022/05/29 02:45:22;;;;;;;2.80;2.60;;;14.20;41.30;;;;;;20574;6826;278247;-74
2022/05/29 02:47:51;;;;;;;2.90;2.50;;;14.20;41.80;;;;;;20578;6826;278574;-75
2022/05/29 02:50:23;;;;;;;2.80;2.60;;;14.50;40.80;;;;;;20469;6826;332695;-75
2022/05/29 02:52:49;;;;;;;2.90;2.60;;;14.70;40.50;;;;;;19833;6841;295465;-75
2022/05/29 02:55:16;;;;;;;3.13;2.83;;;14.80;40.30;;;;;;20529;6839;311478;-75
2022/05/29 02:57:40;;;;;;;3.70;2.60;;;14.90;40.50;;;;;;20755;6840;121007;-76
2022/05/29 03:00:11;;;;;;;2.63;2.47;;;14.70;40.90;;;;;;20738;6841;117273;-74
2022/05/29 03:02:52;;;;;;;2.87;2.50;;;14.00;42.20;;;;;;20717;6841;121504;-76
2022/05/29 03:05:31;;;;;;;2.90;2.70;;;14.00;41.90;;;;;;20529;6841;339078;-75
2022/05/29 03:08:23;;;;;;;3.57;2.40;;;14.20;42.00;;;;;;20735;6841;117873;-75
2022/05/29 03:10:48;;;;;;;3.08;2.80;;;14.10;42.00;;;;;;20508;6841;323388;-75
2022/05/29 03:13:14;;;;;;;2.97;2.78;;;14.20;42.10;;;;;;20502;6841;340368;-76
2022/05/29 03:15:49;;;;;;;3.03;2.83;;;14.50;41.30;;;;;;20458;6841;277557;-75
2022/05/29 03:18:15;;;;;;;3.37;2.50;;;14.70;40.80;;;;;;20699;6841;118413;-74
2022/05/29 03:20:41;;;;;;;2.70;2.50;;;14.50;41.20;;;;;;20505;6841;305825;-75
2022/05/29 03:23:16;;;;;;;2.80;2.60;;;14.50;41.20;;;;;;20522;6841;312883;-75
2022/05/29 03:25:45;;;;;;;3.37;2.57;;;14.70;40.80;;;;;;20363;6832;119546;-74
2022/05/29 03:28:30;;;;;;;2.70;2.50;;;14.50;41.00;;;;;;20545;6832;307081;-75
2022/05/29 03:30:56;;;;;;;2.67;2.47;;;14.50;41.20;;;;;;20549;6832;278499;-75
2022/05/29 03:33:21;;;;;;;2.77;2.57;;;14.70;41.70;;;;;;20557;6832;336661;-76
2022/05/29 03:35:54;;;;;;;3.73;2.37;;;14.90;41.60;;;;;;20783;6832;118569;-75
2022/05/29 03:38:19;;;;;;;2.47;2.30;;;14.70;41.60;;;;;;20535;6832;337591;-75
2022/05/29 03:40:46;;;;;;;2.60;2.37;;;14.70;41.70;;;;;;20767;6832;117448;-78
2022/05/29 03:43:12;;;;;;;2.70;2.50;;;14.60;41.80;;;;;;20569;6832;280267;-75
2022/05/29 03:45:37;;;;;;;2.70;2.50;;;14.60;42.00;;;;;;20568;6832;290269;-75
2022/05/29 03:48:03;;;;;;;3.13;2.67;;;14.70;41.90;;;;;;20771;6832;117655;-76
2022/05/29 03:50:29;;;;;;;2.60;2.40;;;14.60;42.00;;;;;;20497;6832;308798;-76
2022/05/29 03:52:54;;;;;;;2.40;2.20;;;14.60;42.30;;;;;;20564;6832;307566;-75
2022/05/29 03:55:26;;;;;;;3.20;2.97;;;14.80;41.90;;;;;;20545;6832;308369;-75
2022/05/29 03:57:53;;;;;;;3.00;2.80;;;14.90;41.70;;;;;;20777;6832;120420;-75
2022/05/29 04:00:19;;;;;;;4.17;3.00;;;14.70;41.70;;;;;;20755;6832;120352;-75
2022/05/29 04:02:46;;;;;;;2.90;2.25;;;14.40;42.90;;;;;;20571;6832;307216;-75
2022/05/29 04:05:13;;;;;;;2.67;2.30;;;14.40;42.40;;;;;;20778;6832;117390;-75
2022/05/29 04:13:09;;;;;;;3.73;2.50;;;14.50;42.50;;;;;;20785;6832;118392;-74
2022/05/29 04:15:36;;;;;;;2.90;2.70;;;14.20;42.90;;;;;;20783;6832;116998;-75
2022/05/29 04:18:01;;;;;;;2.77;2.50;;;13.90;43.40;;;;;;20780;6832;118353;-75
2022/05/29 04:20:27;;;;;;;2.70;2.50;;;13.90;43.40;;;;;;20531;6832;337237;-75
2022/05/29 04:22:52;;;;;;;2.43;2.33;;;14.20;44.80;;;;;;20775;6832;118026;-75
2022/05/29 04:25:18;;;;;;;2.87;2.67;;;14.20;44.40;;;;;;20566;6832;279593;-75
2022/05/29 04:27:43;;;;;;;2.57;2.37;;;14.30;45.00;;;;;;20771;6832;118594;-78
2022/05/29 04:30:09;;;;;;;2.90;2.67;;;14.20;44.80;;;;;;20749;6832;117729;-75
2022/05/29 04:35:20;;;;;;;2.80;2.60;;;14.10;45.60;;;;;;20766;6832;117446;-75
2022/05/29 04:37:46;;;;;;;2.60;2.40;;;14.00;45.20;;;;;;20557;6832;307138;-75
2022/05/29 04:40:12;;;;;;;2.70;2.50;;;14.20;45.70;;;;;;20510;6832;308058;-75
2022/05/29 04:42:37;;;;;;;2.53;2.40;;;14.50;45.50;;;;;;20765;6832;116394;-75
2022/05/29 04:45:03;;;;;;;3.30;2.60;;;14.50;45.20;;;;;;20771;6832;118478;-75
2022/05/29 04:47:28;;;;;;;2.47;2.33;;;14.30;45.40;;;;;;20759;6832;116268;-75
2022/05/29 04:49:54;;;;;;;3.80;2.50;;;14.00;45.40;;;;;;20566;6832;280509;-75
2022/05/29 04:52:19;;;;;;;2.50;2.37;;;14.20;44.80;;;;;;20750;6832;117846;-75
2022/05/29 04:54:45;;;;;;;2.60;2.40;;;14.20;44.70;;;;;;20771;6832;117953;-76
2022/05/29 04:57:12;;;;;;;2.50;2.30;;;13.90;45.30;;;;;;20788;6832;117224;-76
2022/05/29 04:59:37;;;;;;;2.70;2.50;;;13.90;45.30;;;;;;20577;6832;308828;-75
2022/05/29 05:02:02;;;;;;;2.90;2.70;;;14.10;45.20;;;;;;20568;6832;308423;-76
2022/05/29 05:04:29;;;;;;;5.63;2.70;;;14.60;44.50;;;;;;20761;6832;118431;-78
2022/05/29 05:06:54;;;;;;;2.70;2.13;;;14.60;44.50;;;;;;20778;6832;117604;-74
2022/05/29 05:09:21;;;;;;;2.30;2.10;;;14.40;44.70;;;;;;20776;6832;118641;-76
2022/05/29 05:11:47;;;;;;;3.20;2.83;;;14.20;44.90;;;;;;20770;6832;118303;-75
2022/05/29 05:14:12;;;;;;;2.80;2.60;;;14.10;45.00;;;;;;20550;6832;307682;-75
2022/05/29 05:16:38;;;;;;;2.70;2.50;;;14.30;45.10;;;;;;20560;6832;306051;-76
2022/05/29 05:19:03;;;;;;;2.27;2.00;;;14.70;44.20;;;;;;20777;6830;116468;-78
2022/05/29 05:21:29;;;;;;;2.20;2.10;;;14.70;44.10;;;;;;20769;6832;118651;-75
2022/05/29 05:23:54;;;;;;;2.37;2.10;;;14.50;44.30;;;;;;20774;6832;117486;-74
2022/05/29 05:26:20;;;;;;;2.43;1.97;;;14.30;44.50;;;;;;20759;6832;118606;-75
2022/05/29 05:28:46;;;;;;;2.60;2.40;;;14.20;44.70;;;;;;20569;6832;308813;-71
2022/05/29 05:31:11;;;;;;;2.50;2.30;;;14.40;44.70;;;;;;20778;6832;119804;-76
2022/05/29 05:33:37;;;;;;;3.22;2.65;;;14.60;44.30;;;;;;20575;6832;278522;-73
2022/05/29 05:36:02;;;;;;;2.80;2.50;;;14.80;43.50;;;;;;20574;6832;279581;-75
2022/05/29 05:38:30;;;;;;;2.80;2.60;;;15.20;43.70;;;;;;20756;6832;120105;-73
2022/05/29 05:40:54;;;;;;;3.60;2.45;;;15.20;43.80;;;;;;20776;6832;117450;-76
2022/05/29 05:43:20;;;;;;;2.35;2.15;;;14.90;44.40;;;;;;20793;6832;117196;-81
2022/05/29 05:45:47;;;;;;;2.07;1.93;;;14.90;44.40;;;;;;20787;6832;122782;-75
2022/05/29 05:48:11;;;;;;;2.80;2.10;;;14.80;44.50;;;;;;20618;6832;125741;-76
2022/05/29 05:50:37;;;;;;;2.10;2.00;;;14.80;44.80;;;;;;20764;6832;117326;-78
2022/05/29 05:53:03;;;;;;;5.53;1.97;;;14.90;44.70;;;;;;20771;6832;117921;-77
2022/05/29 05:55:29;;;;;;;3.63;2.40;;;15.00;44.40;;;;;;20571;6832;280345;-74
2022/05/29 05:57:54;;;;;;;2.57;2.20;;;15.50;43.80;;;;;;20768;6832;117291;-74
2022/05/29 06:00:21;;;;;;;3.37;2.03;;;16.00;43.30;;;;;;20730;6832;127158;-76
2022/05/29 06:02:46;;;;;;;3.03;2.27;;;16.00;43.30;;;;;;20773;6832;118742;-77
2022/05/29 06:05:12;;;;;;;2.78;2.58;;;16.10;43.00;;;;;;20575;6832;278421;-76
2022/05/29 06:07:37;;;;;;;2.30;2.10;;;16.40;42.00;;;;;;20775;6832;117187;-75
2022/05/29 06:10:03;;;;;;;2.83;2.30;;;16.60;42.10;;;;;;20771;6832;117651;-76
2022/05/29 06:12:28;;;;;;;2.63;2.43;;;16.60;42.10;;;;;;20548;6832;278183;-74
2022/05/29 06:14:54;;;;;;;2.60;2.40;;;16.90;41.40;;;;;;20564;6832;311625;-80
2022/05/29 06:17:20;;;;;;;2.70;2.45;;;17.40;41.30;;;;;;20568;6832;339496;-76
2022/05/29 06:19:45;;;;;;;2.60;2.40;;;17.70;41.30;;;;;;20566;6832;307101;-74
2022/05/29 06:22:11;;;;;;;3.47;1.70;;;18.00;40.20;;;;;;20558;6832;337092;-75
2022/05/29 06:24:37;;;;;;;5.43;1.70;;;18.20;41.20;;;;;;20489;6832;118302;-74
2022/05/29 06:27:03;;;;;;;3.40;2.20;;;18.10;41.00;;;;;;20565;6832;337289;-76
2022/05/29 06:29:29;;;;;;;2.73;2.27;;;18.90;40.00;;;;;;20574;6830;277510;-74
2022/05/29 06:31:55;;;;;;;2.83;2.20;;;18.80;39.80;;;;;;20563;6831;307516;-74
2022/05/29 06:34:21;;;;;;;3.40;2.03;;;19.30;39.10;;;;;;20513;6832;307542;-74
2022/05/29 06:36:46;;;;;;;5.00;2.20;;;19.60;38.50;;;;;;20788;6832;119907;-74
2022/05/29 06:39:11;;;;;;;4.87;2.33;;;19.60;38.50;;;;;;20574;6832;278009;-74
2022/05/29 06:41:39;;;;;;;3.73;2.30;;;20.00;36.90;;;;;;20564;6832;336994;-73
2022/05/29 06:44:04;;;;;;;2.62;2.40;;;19.90;36.80;;;;;;20564;6832;307684;-76
2022/05/29 06:46:30;;;;;;;2.20;2.00;;;20.20;35.90;;;;;;20753;6832;117817;-76
2022/05/29 06:48:57;;;;;;;2.30;1.93;;;20.00;36.40;;;;;;20778;6832;117710;-76
2022/05/29 06:51:23;;;;;;;2.63;2.33;;;19.80;36.90;;;;;;20541;6832;278189;-75
2022/05/29 06:53:49;;;;;;;2.20;2.00;;;19.80;35.80;;;;;;20768;6832;119278;-75
2022/05/29 06:56:15;;;;;;;2.53;2.17;;;19.60;36.20;;;;;;20518;6832;307580;-75
2022/05/29 06:58:40;;;;;;;2.30;2.10;;;19.60;35.90;;;;;;20574;6832;278354;-75
2022/05/29 07:09:22;;;;;;;8.70;7.75;;;19.90;35.20;;;;;;20568;6832;336342;-74
2022/05/29 07:11:48;;;;;;;10.53;9.47;;;20.00;34.60;;;;;;20559;6832;307977;-73
2022/05/29 07:14:13;;;;;;;5.43;4.78;;;20.10;34.60;;;;;;20554;6832;310628;-73
2022/05/29 07:16:39;;;;;;;3.22;2.97;;;20.20;34.20;;;;;;20785;6832;122700;-74
2022/05/29 07:19:05;;;;;;;3.00;2.70;;;19.90;34.30;;;;;;20795;6832;117383;-73
2022/05/29 07:21:33;;;;;;;2.40;2.20;;;19.50;34.90;;;;;;20533;6832;282017;-74
2022/05/29 07:23:57;;;;;;;2.60;2.40;;;19.50;34.30;;;;;;20755;6832;117415;-75
2022/05/29 07:26:22;;;;;;;3.27;1.90;;;19.30;34.90;;;;;;20768;6832;117230;-73
2022/05/29 07:28:48;;;;;;;2.10;1.90;;;19.00;35.20;;;;;;20568;6832;309924;-73
2022/05/29 07:31:13;;;;;;;1.93;1.83;;;19.00;35.20;;;;;;20778;6832;117159;-73
2022/05/29 07:33:39;;;;;;;1.98;1.87;;;18.80;35.40;;;;;;20569;6832;279820;-75
2022/05/29 07:36:07;;;;;;;2.00;1.40;;;18.90;35.80;;;;;;20784;6832;117224;-74
2022/05/29 07:38:35;;;;;;;2.10;1.80;;;18.70;35.90;;;;;;20544;6832;323099;-77
2022/05/29 07:41:00;;;;;;;1.80;1.70;;;18.80;36.30;;;;;;20787;6831;118234;-74
2022/05/29 07:43:26;;;;;;;1.70;1.40;;;18.80;36.40;;;;;;20792;6831;117811;-76
2022/05/29 07:45:56;;;;;;;2.27;2.00;;;18.60;36.70;;;;;;20585;6832;308052;-75
2022/05/29 07:48:21;;;;;;;2.57;1.77;;;18.80;36.10;;;;;;20763;6832;118336;-77
2022/05/29 07:50:47;;;;;;;2.27;1.90;;;18.80;36.30;;;;;;20557;6832;310877;-76
2022/05/29 07:53:12;;;;;;;1.80;1.67;;;19.00;36.30;;;;;;20789;6832;117746;-76
2022/05/29 07:55:38;;;;;;;1.53;1.43;;;18.90;36.80;;;;;;20784;6832;117158;-76
2022/05/29 07:58:04;;;;;;;2.00;1.90;;;18.90;36.70;;;;;;20572;6832;307225;-74
2022/05/29 08:00:29;;;;;;;2.20;2.00;;;19.20;37.20;;;;;;20549;6832;307595;-77
2022/05/29 08:02:56;;;;;;;3.17;1.90;;;19.60;36.50;;;;;;20791;6832;117071;-78
2022/05/29 08:05:21;;;;;;;1.47;1.37;;;19.60;36.40;;;;;;20785;6832;117889;-78
2022/05/29 08:07:47;;;;;;;2.30;2.10;;;19.50;36.60;;;;;;20794;6832;117125;-77
2022/05/29 08:10:13;;;;;;;1.70;1.60;;;19.40;36.60;;;;;;20750;6832;117755;-79
2022/05/29 08:12:39;;;;;;;1.90;1.80;;;19.30;36.70;;;;;;20779;6832;118654;-76
2022/05/29 08:15:04;;;;;;;2.90;1.80;;;19.20;36.70;;;;;;20784;6832;117469;-76
2022/05/29 08:17:29;;;;;;;2.27;1.90;;;19.20;36.60;;;;;;20568;6832;279685;-78
2022/05/29 08:19:55;;;;;;;2.62;2.08;;;19.40;35.70;;;;;;20554;6832;307920;-77
2022/05/29 08:22:21;;;;;;;2.10;1.80;;;19.70;34.90;;;;;;20522;6832;277588;-76
2022/05/29 08:33:03;;;;;;;2.37;1.80;;;20.80;34.40;;;;;;20576;6832;279235;-77
2022/05/29 08:35:30;;;;;;;2.62;1.60;;;21.50;33.40;;;;;;20781;6832;118004;-77
2022/05/29 08:37:57;;;;;;;3.27;1.53;;;21.40;33.30;;;;;;20771;6832;119100;-78
2022/05/29 08:40:22;;;;;;;2.35;1.83;;;21.40;33.30;;;;;;20540;6832;336728;-78
2022/05/29 08:42:48;;;;;;;1.75;1.37;;;21.70;31.60;;;;;;20567;6832;311055;-77
2022/05/29 08:45:15;;;;;;;1.50;1.40;;;22.10;31.10;;;;;;20562;6832;278675;-77
2022/05/29 08:47:39;;;;;;;1.13;1.03;;;22.50;30.10;;;;;;20772;6832;117540;-77
2022/05/29 08:50:05;;;;;;;1.50;1.40;;;22.50;30.70;;;;;;20562;6832;308022;-77
2022/05/29 08:52:46;;;;;;;1.97;1.40;;;22.70;29.60;;;;;;20757;6830;117428;-76
2022/05/29 08:55:19;;;;;;;3.03;1.10;;;22.20;30.00;;;;;;20764;6831;117518;-73
2022/05/29 08:57:53;;;;;;;3.07;1.43;;;22.20;29.70;;;;;;20687;6832;117787;-73
2022/05/29 09:00:20;;;;;;;1.30;1.20;;;21.80;30.10;;;;;;20518;6832;278103;-74
2022/05/29 09:02:52;;;;;;;1.30;1.20;;;21.80;29.50;;;;;;20546;6832;278123;-76
2022/05/29 09:05:18;;;;;;;1.25;1.10;;;22.10;29.20;;;;;;20549;6832;277722;-76
2022/05/29 09:07:43;;;;;;;1.80;1.70;;;22.30;29.20;;;;;;20559;6832;307485;-75
2022/05/29 09:10:18;;;;;;;1.90;1.73;;;22.30;29.50;;;;;;20542;6832;307586;-78
2022/05/29 09:12:47;;;;;;;2.33;1.87;;;22.30;30.00;;;;;;20356;6832;118540;-77
2022/05/29 09:15:13;;;;;;;2.33;1.40;;;21.60;30.50;;;;;;20767;6832;117329;-76
2022/05/29 09:17:51;;;;;;;5.90;2.17;;;20.90;31.60;;;;;;20551;6832;278154;-76
2022/05/29 09:20:26;;;;;;;4.35;2.12;;;20.70;34.60;;;;;;20545;6832;280038;-74
2022/05/29 09:22:52;;;;;;;4.30;2.47;;;20.50;35.50;;;;;;20548;6832;308180;-75
2022/05/29 09:25:37;;;;;;;18.10;2.87;;;20.10;36.70;;;;;;20791;6832;121106;-76
2022/05/29 09:28:13;;;;;;;6.03;3.03;;;18.40;39.40;;;;;;20559;6832;307292;-78
2022/05/29 09:30:39;;;;;;;5.15;2.80;;;18.30;39.30;;;;;;20553;6832;278292;-75
2022/05/29 09:33:07;;;;;;;3.97;2.40;;;17.90;41.20;;;;;;20780;6832;117582;-75
2022/05/29 09:35:36;;;;;;;3.90;2.20;;;17.10;41.20;;;;;;20769;6832;118830;-74
2022/05/29 09:38:04;;;;;;;4.17;2.40;;;16.30;42.00;;;;;;20779;6832;117597;-74
2022/05/29 09:40:41;;;;;;;3.33;2.70;;;15.70;45.10;;;;;;20506;6832;326288;-74
2022/05/29 09:43:09;;;;;;;5.27;2.40;;;15.60;44.90;;;;;;20739;6832;117083;-74
2022/05/29 09:45:35;;;;;;;2.97;2.00;;;15.40;44.60;;;;;;20735;6832;117270;-76
2022/05/29 09:50:49;;;;;;;3.37;2.40;;;14.90;45.30;;;;;;20564;6832;308178;-73
2022/05/29 09:53:18;;;;;;;3.30;2.30;;;15.20;46.00;;;;;;20584;6832;297897;-74
2022/05/29 09:55:49;;;;;;;3.00;2.00;;;15.60;46.00;;;;;;20526;6832;278533;-74
2022/05/29 09:58:15;;;;;;;3.43;1.97;;;15.90;45.10;;;;;;20724;6832;117991;-75
2022/05/29 10:00:42;;;;;;;2.67;1.83;;;15.70;44.80;;;;;;20568;6832;119352;-75
2022/05/29 10:03:06;;;;;;;2.43;2.07;;;15.30;45.10;;;;;;20719;6832;117980;-75
2022/05/29 10:05:33;;;;;;;2.50;2.20;;;15.10;45.70;;;;;;20551;6830;278015;-74
2022/05/29 10:07:57;;;;;;;3.20;2.20;;;15.30;46.50;;;;;;20531;6832;340367;-74
2022/05/29 10:10:33;;;;;;;3.70;2.20;;;15.50;46.30;;;;;;20738;6832;120937;-75
2022/05/29 10:12:59;;;;;;;3.30;2.10;;;15.50;46.30;;;;;;20554;6832;119067;-75
2022/05/29 10:15:25;;;;;;;3.13;1.93;;;15.10;47.10;;;;;;20769;6832;123032;-75
2022/05/29 10:17:53;;;;;;;3.70;2.45;;;15.10;47.80;;;;;;20574;6832;307612;-75
2022/05/29 10:20:35;;;;;;;3.53;2.77;;;15.40;47.50;;;;;;20539;6832;315562;-76
2022/05/29 10:23:01;;;;;;;2.87;2.40;;;15.80;46.80;;;;;;20774;6832;117308;-75
2022/05/29 10:25:27;;;;;;;2.75;2.47;;;15.80;46.70;;;;;;20561;6832;303283;-75
2022/05/29 10:27:52;;;;;;;2.87;2.50;;;16.10;47.20;;;;;;20529;6832;333368;-75
2022/05/29 10:30:27;;;;;;;2.58;2.35;;;16.60;46.70;;;;;;20533;6832;278466;-76
2022/05/29 10:32:59;;;;;;;2.30;2.10;;;17.20;46.90;;;;;;20768;6832;119855;-75
2022/05/29 10:35:27;;;;;;;3.00;2.10;;;17.50;46.70;;;;;;20576;6832;311898;-75
2022/05/29 10:37:53;;;;;;;2.80;1.87;;;18.00;46.90;;;;;;20510;6832;278830;-76
2022/05/29 10:40:25;;;;;;;1.90;1.80;;;18.70;44.30;;;;;;20513;6832;142762;-78
2022/05/29 10:42:52;;;;;;;3.53;2.07;;;18.90;44.10;;;;;;20459;6827;308481;-78
2022/05/29 10:45:18;;;;;;;1.80;1.70;;;19.10;43.20;;;;;;20798;6828;69694;-77
2022/05/29 10:48:03;;;;;;;2.57;1.80;;;19.20;43.50;;;;;;20765;6828;117173;-76
2022/05/29 10:50:48;;;;;;;3.65;2.08;;;19.10;44.10;;;;;;20581;6828;307993;-76
2022/05/29 10:53:34;;;;;;;3.03;1.83;;;19.30;40.60;;;;;;20599;6828;307081;-75
2022/05/29 10:56:19;;;;;;;2.17;1.50;;;19.70;41.10;;;;;;20790;6828;69405;-75
2022/05/29 10:58:59;;;;;;;3.40;1.73;;;19.40;41.40;;;;;;20788;6828;67805;-76
2022/05/29 11:04:36;;;;;;;1.80;1.70;;;19.20;42.00;;;;;;20592;6828;308371;-75
2022/05/29 11:07:08;;;;;;;3.13;1.53;;;19.40;41.00;;;;;;20790;6828;118420;-76
2022/05/29 11:09:40;;;;;;;3.57;1.80;;;19.30;41.30;;;;;;20759;6828;117413;-75
2022/05/29 11:12:12;;;;;;;2.17;1.95;;;19.00;41.60;;;;;;20552;6828;309310;-74
2022/05/29 11:15:01;;;;;;;1.73;1.63;;;19.00;40.30;;;;;;20753;6828;117373;-74
2022/05/29 11:17:27;;;;;;;2.10;1.87;;;18.80;41.00;;;;;;20579;6826;309882;-75
2022/05/29 11:20:29;;;;;;;2.40;2.20;;;18.70;40.50;;;;;;20762;6827;117093;-78
2022/05/29 11:23:08;;;;;;;2.33;1.70;;;18.70;40.80;;;;;;20580;6827;282608;-76
2022/05/29 11:25:40;;;;;;;2.80;2.20;;;18.70;39.50;;;;;;20585;6827;342448;-75
2022/05/29 11:28:25;;;;;;;2.40;1.70;;;18.70;39.00;;;;;;20759;6828;118807;-76
2022/05/29 11:30:53;;;;;;;2.30;1.63;;;18.00;40.10;;;;;;20555;6828;307797;-76
2022/05/29 11:33:38;;;;;;;1.50;1.40;;;18.00;40.10;;;;;;20793;6828;117108;-76
2022/05/29 11:36:20;;;;;;;1.47;1.37;;;17.60;40.60;;;;;;20778;6828;118047;-76
2022/05/29 11:39:02;;;;;;;1.37;1.30;;;17.00;41.10;;;;;;20768;6828;119672;-77
2022/05/29 11:41:31;;;;;;;1.40;1.30;;;16.50;41.50;;;;;;19513;7180;320964;-77
2022/05/29 11:44:25;;;;;;;1.92;1.20;;;16.50;41.70;;;;;;20458;6828;337527;-76
2022/05/29 11:52:38;;;;;;;1.20;1.20;;;16.80;41.10;;;;;;20554;6828;310149;-75
2022/05/29 11:55:03;;;;;;;1.27;1.27;;;17.00;40.70;;;;;;20760;6828;122327;-76
2022/05/29 11:57:31;;;;;;;1.10;1.10;;;17.00;41.40;;;;;;20776;6828;121375;-75
2022/05/29 12:00:00;;;;;;;0.97;0.97;;;16.70;41.90;;;;;;20761;6828;118381;-75
2022/05/29 12:02:49;;;;;;;1.52;1.30;;;16.40;42.50;;;;;;20541;6828;307193;-75
2022/05/29 12:05:27;;;;;;;1.40;1.23;;;16.40;41.50;;;;;;20566;6828;310862;-76
2022/05/29 12:07:59;;;;;;;1.47;1.10;;;16.70;40.70;;;;;;20777;6828;117603;-75
2022/05/29 12:10:26;;;;;;;1.27;1.20;;;16.60;41.20;;;;;;20630;6828;120590;-75
2022/05/29 12:13:01;;;;;;;1.55;1.27;;;16.20;41.70;;;;;;20548;6828;283604;-74
2022/05/29 12:15:27;;;;;;;1.43;1.33;;;16.00;42.80;;;;;;20764;6828;118504;-75
2022/05/29 12:18:03;;;;;;;1.57;1.40;;;16.00;43.50;;;;;;20794;6828;117181;-76
2022/05/29 12:20:50;;;;;;;2.27;1.50;;;15.90;43.60;;;;;;20525;6828;399668;-76
2022/05/29 12:23:25;;;;;;;2.57;1.53;;;16.00;44.00;;;;;;20780;6828;120682;-75
2022/05/29 12:26:06;;;;;;;1.47;1.33;;;16.00;44.30;;;;;;20791;6828;120231;-75
2022/05/29 12:28:42;;;;;;;3.10;2.87;;;15.90;44.80;;;;;;20557;6826;278427;-75
2022/05/29 12:31:17;;;;;;;1.87;1.70;;;16.20;44.60;;;;;;20772;6827;117509;-76
2022/05/29 12:33:43;;;;;;;2.17;1.48;;;16.30;44.70;;;;;;20292;6827;311127;-75
2022/05/29 12:36:34;;;;;;;1.67;1.33;;;16.50;43.20;;;;;;20767;6827;118857;-74
2022/05/29 12:39:00;;;;;;;1.80;1.70;;;16.50;43.40;;;;;;20567;6828;337518;-76
2022/05/29 12:41:39;;;;;;;1.73;1.60;;;16.50;42.20;;;;;;20801;6828;119123;-75
2022/05/29 12:44:09;;;;;;;1.60;1.50;;;16.40;42.60;;;;;;20591;6828;280275;-77
2022/05/29 12:46:53;;;;;;;2.27;1.47;;;16.40;44.10;;;;;;20548;6828;308402;-76
2022/05/29 12:49:59;;;;;;;2.33;1.48;;;16.60;41.80;;;;;;20582;6828;307634;-75
2022/05/29 12:52:34;;;;;;;1.70;1.60;;;16.60;41.10;;;;;;20566;6828;308104;-75
2022/05/29 12:55:33;;;;;;;2.37;1.40;;;16.70;40.90;;;;;;20781;6828;117139;-75
2022/05/29 12:58:29;;;;;;;7.70;6.73;;;16.50;41.50;;;;;;19995;6828;120585;-75
2022/05/29 13:01:14;;;;;;;17.60;14.93;;;15.90;43.00;;;;;;20792;6828;117803;-76
2022/05/29 13:04:10;;;;;;;2.00;1.90;;;15.90;42.90;;;;;;20799;6828;117590;-76
2022/05/29 13:07:02;;;;;;;1.97;1.77;;;15.80;43.80;;;;;;20573;6828;278027;-74
2022/05/29 13:09:50;;;;;;;1.67;1.57;;;16.10;43.30;;;;;;20579;6828;303638;-73
2022/05/29 13:12:15;;;;;;;2.50;1.55;;;16.60;40.80;;;;;;20565;6828;303360;-75
2022/05/29 13:14:44;;;;;;;1.95;1.42;;;16.60;41.60;;;;;;20791;6828;117565;-74
2022/05/29 13:17:11;;;;;;;1.40;1.30;;;16.30;42.40;;;;;;20792;6828;117376;-75
2022/05/29 13:19:56;;;;;;;1.70;1.60;;;16.30;42.40;;;;;;20786;6828;117635;-79
2022/05/29 13:22:22;;;;;;;1.70;1.60;;;16.20;43.00;;;;;;20775;6828;120243;-77
2022/05/29 13:24:48;;;;;;;1.90;1.23;;;16.30;41.80;;;;;;20496;6828;281159;-76
2022/05/29 13:27:16;;;;;;;2.43;1.40;;;16.30;41.80;;;;;;20743;6828;117182;-74